createdAt,value
2023-03-06T00:01:28.236Z,91.80
2023-03-06T00:03:55.248Z,91.90
2023-03-06T00:06:21.994Z,92.10
2023-03-06T00:08:48.672Z,92.20
2023-03-06T00:11:15.564Z,92.10
2023-03-06T00:13:42.264Z,92.10
2023-03-06T00:16:09.033Z,92.00
2023-03-06T00:18:35.771Z,92.10
2023-03-06T00:21:06.306Z,91.90
2023-03-06T00:23:33.021Z,92.00
2023-03-06T00:25:59.689Z,92.20
2023-03-06T00:28:26.368Z,92.20
2023-03-06T00:30:53.018Z,92.00
2023-03-06T00:33:19.671Z,92.10
2023-03-06T00:35:46.335Z,92.20
2023-03-06T00:38:13.481Z,92.10
2023-03-06T00:40:40.346Z,92.30
2023-03-06T00:43:06.988Z,92.20
2023-03-06T00:45:33.782Z,92.50
2023-03-06T00:48:00.599Z,92.30
2023-03-06T00:50:27.273Z,92.60
2023-03-06T00:52:53.962Z,92.30
2023-03-06T00:55:20.603Z,92.10
2023-03-06T00:57:47.238Z,92.00
2023-03-06T01:00:14.600Z,92.20
2023-03-06T01:02:41.400Z,92.20
2023-03-06T01:05:08.500Z,92.60
2023-03-06T01:07:36.941Z,92.50
2023-03-06T01:10:05.095Z,92.30
2023-03-06T01:12:31.764Z,92.60
2023-03-06T01:14:58.414Z,93.00
2023-03-06T01:17:25.171Z,92.80
2023-03-06T01:19:51.864Z,93.30
2023-03-06T01:22:18.522Z,93.70
2023-03-06T01:24:45.185Z,93.30
2023-03-06T01:27:11.810Z,94.10
2023-03-06T01:29:38.512Z,94.00
2023-03-06T01:32:05.433Z,94.10
2023-03-06T01:34:32.180Z,94.20
2023-03-06T01:36:58.841Z,94.80
2023-03-06T01:39:25.492Z,94.00
2023-03-06T01:41:52.127Z,94.10
2023-03-06T01:44:18.799Z,93.60
2023-03-06T01:46:45.901Z,93.30
2023-03-06T01:49:20.970Z,93.00
2023-03-06T01:51:49.864Z,92.80
2023-03-06T01:54:19.172Z,92.80
2023-03-06T01:56:47.136Z,92.80
2023-03-06T01:59:13.850Z,93.00
2023-03-06T02:01:41.025Z,92.60
2023-03-06T02:04:08.373Z,92.80
2023-03-06T02:06:37.061Z,92.70
2023-03-06T02:09:05.089Z,92.80
2023-03-06T02:11:31.889Z,92.70
2023-03-06T02:13:58.592Z,93.00
2023-03-06T02:16:26.768Z,93.50
2023-03-06T02:18:53.561Z,93.30
2023-03-06T02:21:22.130Z,93.10
2023-03-06T02:23:54.630Z,93.00
2023-03-06T02:26:21.690Z,92.60
2023-03-06T02:28:48.334Z,92.70
2023-03-06T02:31:26.482Z,92.80
2023-03-06T02:34:02.526Z,92.90
2023-03-06T02:36:29.717Z,92.70
2023-03-06T02:38:57.071Z,92.90
2023-03-06T02:41:24.397Z,92.90
2023-03-06T02:43:52.066Z,93.00
2023-03-06T02:46:18.837Z,93.30
2023-03-06T02:48:45.486Z,93.00
2023-03-06T02:51:12.176Z,93.00
2023-03-06T02:53:38.827Z,93.10
2023-03-06T02:56:05.662Z,92.90
2023-03-06T02:58:32.450Z,93.60
2023-03-06T03:00:59.095Z,93.20
2023-03-06T03:03:25.802Z,93.00
2023-03-06T03:05:52.447Z,93.60
2023-03-06T03:08:19.100Z,93.40
2023-03-06T03:10:45.735Z,93.40
2023-03-06T03:13:12.384Z,93.50
2023-03-06T03:15:39.079Z,93.70
2023-03-06T03:18:05.772Z,93.60
2023-03-06T03:20:32.463Z,94.20
2023-03-06T03:22:59.109Z,93.90
2023-03-06T03:25:26.153Z,93.90
2023-03-06T03:27:52.824Z,94.20
2023-03-06T03:30:19.513Z,93.90
2023-03-06T03:32:46.148Z,93.50
2023-03-06T03:35:12.838Z,94.00
2023-03-06T03:37:39.485Z,93.80
2023-03-06T03:40:07.339Z,93.70
2023-03-06T03:42:34.423Z,93.70
2023-03-06T03:45:01.065Z,93.50
2023-03-06T03:47:27.735Z,93.30
2023-03-06T03:49:54.412Z,93.40
2023-03-06T03:52:21.197Z,93.40
2023-03-06T03:54:47.861Z,93.60
2023-03-06T03:57:14.516Z,93.40
2023-03-06T03:59:41.144Z,93.30
2023-03-06T04:02:07.839Z,93.40
2023-03-06T04:04:34.847Z,93.30
2023-03-06T04:07:01.604Z,93.30
2023-03-06T04:09:28.294Z,93.20
2023-03-06T04:11:55.150Z,93.30
2023-03-06T04:14:21.828Z,93.40
2023-03-06T04:16:48.557Z,93.00
2023-03-06T04:19:15.225Z,93.30
2023-03-06T04:21:41.866Z,93.30
2023-03-06T04:24:08.632Z,93.40
2023-03-06T04:26:36.181Z,93.60
2023-03-06T04:29:02.888Z,93.30
2023-03-06T04:31:29.606Z,93.00
2023-03-06T04:33:56.404Z,93.50
2023-03-06T04:36:28.107Z,93.10
2023-03-06T04:38:54.802Z,93.10
2023-03-06T04:41:22.061Z,92.90
2023-03-06T04:43:48.891Z,93.30
2023-03-06T04:46:15.543Z,93.40
2023-03-06T04:48:42.220Z,93.70
2023-03-06T04:51:10.550Z,93.60
2023-03-06T04:53:37.255Z,93.30
2023-03-06T04:56:03.985Z,93.60
2023-03-06T04:58:30.763Z,93.80
2023-03-06T05:00:57.513Z,93.60
2023-03-06T05:03:24.234Z,93.60
2023-03-06T05:05:50.883Z,93.80
2023-03-06T05:08:18.251Z,94.00
2023-03-06T05:10:45.242Z,94.00
2023-03-06T05:13:12.044Z,94.10
2023-03-06T05:15:42.057Z,94.10
2023-03-06T05:18:08.749Z,93.90
2023-03-06T05:20:35.394Z,94.00
2023-03-06T05:23:02.037Z,93.70
2023-03-06T05:25:28.821Z,93.90
2023-03-06T05:27:55.452Z,94.20
2023-03-06T05:30:23.250Z,94.80
2023-03-06T05:32:50.194Z,95.10
2023-03-06T05:35:18.867Z,95.30
2023-03-06T05:37:45.889Z,94.40
2023-03-06T05:40:13.303Z,94.40
2023-03-06T05:42:39.945Z,94.60
2023-03-06T05:45:06.884Z,94.70
2023-03-06T05:47:33.570Z,95.00
2023-03-06T05:50:00.209Z,94.60
2023-03-06T05:52:26.844Z,94.90
2023-03-06T05:54:54.501Z,94.90
2023-03-06T05:57:21.992Z,95.00
2023-03-06T05:59:49.295Z,95.00
2023-03-06T06:02:16.656Z,94.60
2023-03-06T06:04:43.460Z,94.60
2023-03-06T06:07:12.597Z,95.40
2023-03-06T06:09:39.281Z,95.20
2023-03-06T06:12:06.140Z,94.50
2023-03-06T06:14:34.106Z,94.20
2023-03-06T06:17:00.757Z,93.90
2023-03-06T06:19:31.433Z,93.70
2023-03-06T06:21:58.204Z,93.30
2023-03-06T06:24:25.807Z,93.30
2023-03-06T06:26:54.038Z,93.90
2023-03-06T06:29:21.094Z,93.40
2023-03-06T06:31:47.782Z,93.30
2023-03-06T06:34:14.446Z,93.40
2023-03-06T06:36:41.393Z,93.20
2023-03-06T06:39:08.585Z,93.40
2023-03-06T06:41:54.793Z,93.00
2023-03-06T06:44:28.058Z,92.80
2023-03-06T06:47:22.202Z,92.80
2023-03-06T06:49:41.356Z,92.60
2023-03-06T06:52:18.748Z,92.60
2023-03-06T06:54:45.828Z,92.70
2023-03-06T06:57:13.960Z,92.50
2023-03-06T06:59:40.647Z,92.30
2023-03-06T07:02:07.694Z,92.60
2023-03-06T07:05:12.609Z,92.70
2023-03-06T07:07:39.360Z,92.40
2023-03-06T07:10:07.716Z,92.40
2023-03-06T07:12:40.353Z,92.60
2023-03-06T07:15:08.064Z,92.30
2023-03-06T07:17:34.792Z,92.30
2023-03-06T07:20:01.656Z,92.60
2023-03-06T07:22:51.845Z,92.30
2023-03-06T07:25:19.105Z,92.60
2023-03-06T07:27:52.821Z,92.70
2023-03-06T07:30:21.275Z,92.60
2023-03-06T07:33:19.198Z,92.20
2023-03-06T07:35:45.880Z,92.20
2023-03-06T07:38:12.828Z,92.40
2023-03-06T07:40:40.079Z,92.30
2023-03-06T07:43:18.730Z,92.20
2023-03-06T07:45:47.006Z,91.80
2023-03-06T07:48:14.323Z,91.80
2023-03-06T07:51:05.020Z,92.10
2023-03-06T07:53:31.964Z,91.60
2023-03-06T07:56:19.193Z,92.00
2023-03-06T07:58:46.678Z,92.00
2023-03-06T08:01:15.264Z,91.60
2023-03-06T08:03:41.997Z,91.40
2023-03-06T08:06:10.236Z,91.80
2023-03-06T08:08:37.765Z,91.70
2023-03-06T08:11:04.590Z,91.30
2023-03-06T08:13:31.262Z,91.30
2023-03-06T08:15:59.761Z,90.90
2023-03-06T08:18:27.551Z,90.60
2023-03-06T08:21:11.058Z,91.10
2023-03-06T08:23:37.951Z,91.20
2023-03-06T08:26:06.441Z,90.90
2023-03-06T08:28:33.486Z,90.80
2023-03-06T08:31:07.229Z,90.90
2023-03-06T08:33:33.908Z,91.20
2023-03-06T08:36:02.310Z,90.90
2023-03-06T08:38:29.272Z,90.50
2023-03-06T08:40:55.917Z,90.40
2023-03-06T08:43:22.719Z,90.40
2023-03-06T08:45:56.570Z,90.30
2023-03-06T08:48:23.253Z,90.10
2023-03-06T08:50:49.910Z,90.10
2023-03-06T08:53:16.816Z,89.70
2023-03-06T08:55:43.763Z,90.00
2023-03-06T08:58:10.814Z,89.50
2023-03-06T09:00:37.740Z,90.20
2023-03-06T09:03:04.704Z,89.50
2023-03-06T09:05:31.512Z,90.00
2023-03-06T09:07:58.216Z,89.30
2023-03-06T09:10:25.417Z,89.90
2023-03-06T09:12:54.782Z,89.80
2023-03-06T09:15:22.657Z,89.30
2023-03-06T09:17:50.830Z,88.80
2023-03-06T09:20:18.006Z,89.20
2023-03-06T09:22:45.729Z,88.30
2023-03-06T09:25:20.328Z,88.60
2023-03-06T09:27:51.432Z,88.80
2023-03-06T09:30:22.398Z,89.60
2023-03-06T09:32:49.180Z,87.30
2023-03-06T09:35:17.924Z,87.50
2023-03-06T09:37:45.041Z,87.40
2023-03-06T09:40:15.773Z,87.50
2023-03-06T09:42:42.808Z,87.70
2023-03-06T09:45:11.022Z,88.80
2023-03-06T09:47:37.661Z,88.10
2023-03-06T09:50:26.424Z,86.70
2023-03-06T09:52:56.514Z,86.70
2023-03-06T09:55:28.012Z,85.60
2023-03-06T09:58:00.923Z,86.20
2023-03-06T10:00:47.891Z,85.60
2023-03-06T10:03:21.965Z,86.10
2023-03-06T10:06:00.959Z,85.20
2023-03-06T10:08:46.509Z,85.60
2023-03-06T10:11:14.822Z,86.90
2023-03-06T10:13:41.499Z,84.80
2023-03-06T10:16:21.866Z,85.90
2023-03-06T10:18:48.592Z,86.40
2023-03-06T10:21:29.787Z,86.50
2023-03-06T10:24:13.738Z,85.90
2023-03-06T10:26:44.968Z,83.80
2023-03-06T10:29:17.594Z,82.10
2023-03-06T10:31:45.158Z,84.60
2023-03-06T10:34:14.894Z,85.80
2023-03-06T10:36:41.535Z,85.60
2023-03-06T10:39:15.806Z,85.60
2023-03-06T10:41:43.330Z,83.80
2023-03-06T10:44:11.258Z,83.00
2023-03-06T10:46:38.026Z,85.20
2023-03-06T10:49:06.271Z,84.50
2023-03-06T10:51:34.097Z,85.20
2023-03-06T10:54:18.075Z,83.00
2023-03-06T10:56:45.756Z,84.40
2023-03-06T10:59:13.600Z,82.90
2023-03-06T11:01:41.163Z,82.60
2023-03-06T11:04:23.718Z,83.70
2023-03-06T11:07:05.662Z,80.10
2023-03-06T11:09:33.282Z,81.20
2023-03-06T11:12:18.741Z,81.10
2023-03-06T11:14:45.369Z,82.80
2023-03-06T11:17:28.634Z,80.90
2023-03-06T11:20:29.187Z,80.60
2023-03-06T11:23:04.425Z,82.20
2023-03-06T11:25:42.670Z,83.30
2023-03-06T11:28:17.462Z,80.40
2023-03-06T11:30:46.249Z,82.30
2023-03-06T11:33:27.893Z,82.80
2023-03-06T11:35:58.618Z,83.60
2023-03-06T11:38:32.239Z,84.10
2023-03-06T11:41:00.064Z,84.20
2023-03-06T11:43:45.654Z,82.90
2023-03-06T11:46:26.353Z,84.60
2023-03-06T11:48:56.212Z,83.60
2023-03-06T11:51:25.819Z,84.00
2023-03-06T11:53:53.567Z,84.10
2023-03-06T11:56:20.311Z,83.60
2023-03-06T11:59:05.308Z,83.10
2023-03-06T12:01:41.727Z,82.80
2023-03-06T12:04:17.532Z,82.50
2023-03-06T12:06:44.240Z,81.60
2023-03-06T12:09:14.215Z,81.10
2023-03-06T12:11:44.195Z,81.60
2023-03-06T12:14:10.881Z,81.70
2023-03-06T12:16:40.533Z,81.90
2023-03-06T12:19:16.696Z,82.30
2023-03-06T12:21:58.697Z,82.20
2023-03-06T12:24:28.377Z,82.60
2023-03-06T12:27:12.675Z,83.20
2023-03-06T12:29:48.541Z,82.80
2023-03-06T12:32:30.540Z,82.40
2023-03-06T12:35:05.850Z,82.20
2023-03-06T12:37:48.134Z,82.00
2023-03-06T12:40:34.902Z,82.90
2023-03-06T12:43:01.540Z,83.50
2023-03-06T12:45:33.896Z,83.50
2023-03-06T12:48:01.779Z,85.20
2023-03-06T12:50:30.060Z,83.40
2023-03-06T12:53:04.381Z,83.10
2023-03-06T12:55:42.164Z,83.30
2023-03-06T12:58:27.780Z,84.10
2023-03-06T13:01:13.258Z,83.60
2023-03-06T13:03:41.324Z,83.80
2023-03-06T13:06:26.749Z,84.40
2023-03-06T13:09:05.534Z,85.00
2023-03-06T13:11:50.588Z,84.30
2023-03-06T13:14:26.659Z,82.40
2023-03-06T13:16:53.505Z,83.40
2023-03-06T13:19:25.169Z,82.90
2023-03-06T13:21:54.868Z,83.70
2023-03-06T13:24:25.277Z,82.50
2023-03-06T13:26:51.913Z,83.80
2023-03-06T13:29:36.839Z,83.70
2023-03-06T13:32:03.632Z,83.10
2023-03-06T13:34:38.314Z,82.90
2023-03-06T13:37:13.943Z,83.00
2023-03-06T13:40:07.178Z,83.40
2023-03-06T13:42:37.977Z,83.50
2023-03-06T13:45:19.384Z,82.30
2023-03-06T13:50:44.703Z,83.80
2023-03-06T13:53:11.474Z,83.60
2023-03-06T13:55:44.114Z,82.50
2023-03-06T13:58:10.759Z,81.10
2023-03-06T14:00:56.288Z,82.60
2023-03-06T14:03:41.654Z,82.30
2023-03-06T14:06:42.390Z,83.40
2023-03-06T14:09:15.830Z,83.90
2023-03-06T14:11:49.634Z,84.90
2023-03-06T14:14:16.463Z,83.70
2023-03-06T14:16:50.415Z,84.10
2023-03-06T14:19:17.670Z,84.00
2023-03-06T14:21:55.547Z,84.10
2023-03-06T14:24:28.898Z,84.10
2023-03-06T14:26:55.606Z,84.00
2023-03-06T14:29:23.471Z,83.90
2023-03-06T14:31:51.566Z,84.60
2023-03-06T14:34:21.150Z,84.60
2023-03-06T14:36:49.167Z,84.30
2023-03-06T14:39:21.664Z,83.00
2023-03-06T14:41:48.373Z,83.80
2023-03-06T14:44:17.719Z,83.70
2023-03-06T14:46:45.645Z,83.90
2023-03-06T14:49:13.964Z,83.30
2023-03-06T14:51:48.636Z,83.30
2023-03-06T14:54:20.297Z,83.60
2023-03-06T14:57:00.038Z,85.00
2023-03-06T14:59:28.586Z,84.40
2023-03-06T15:02:01.070Z,84.80
2023-03-06T15:04:37.950Z,84.80
2023-03-06T15:07:09.478Z,85.00
2023-03-06T15:09:37.170Z,84.70
2023-03-06T15:12:05.137Z,85.40
2023-03-06T15:14:36.617Z,85.10
2023-03-06T15:17:20.777Z,84.50
2023-03-06T15:19:48.656Z,84.20
2023-03-06T15:22:30.499Z,84.90
2023-03-06T15:25:26.163Z,85.30
2023-03-06T15:27:52.825Z,85.00
2023-03-06T15:30:28.582Z,83.90
2023-03-06T15:33:13.832Z,84.80
2023-03-06T15:35:40.900Z,84.80
2023-03-06T15:38:25.757Z,85.00
2023-03-06T15:40:59.725Z,84.90
2023-03-06T15:43:27.679Z,84.40
2023-03-06T15:45:57.749Z,84.80
2023-03-06T15:48:24.490Z,85.10
2023-03-06T15:50:51.197Z,86.40
2023-03-06T15:53:17.856Z,85.90
2023-03-06T15:55:44.580Z,86.10
2023-03-06T15:58:15.084Z,85.00
2023-03-06T16:00:42.466Z,85.60
2023-03-06T16:03:10.324Z,85.60
2023-03-06T16:05:37.011Z,85.80
2023-03-06T16:08:04.732Z,85.80
2023-03-06T16:10:33.637Z,86.80
2023-03-06T16:13:06.223Z,86.40
2023-03-06T16:15:35.279Z,86.80
2023-03-06T16:18:01.937Z,86.80
2023-03-06T16:20:29.314Z,86.90
2023-03-06T16:22:56.205Z,87.50
2023-03-06T16:25:24.497Z,88.40
2023-03-06T16:31:22.896Z,88.80
2023-03-06T16:34:24.303Z,89.40
2023-03-06T16:36:50.997Z,89.90
2023-03-06T16:39:21.481Z,90.10
2023-03-06T16:41:49.416Z,90.10
2023-03-06T16:44:16.371Z,91.00
2023-03-06T16:46:45.915Z,91.40
2023-03-06T16:49:15.469Z,91.40
2023-03-06T16:51:42.153Z,92.50
2023-03-06T16:54:08.913Z,92.80
2023-03-06T16:56:35.626Z,92.90
2023-03-06T16:59:02.276Z,92.60
2023-03-06T17:01:28.964Z,92.30
2023-03-06T17:03:55.740Z,91.70
2023-03-06T17:06:22.896Z,92.30
2023-03-06T17:08:49.969Z,93.50
2023-03-06T17:11:17.137Z,93.40
2023-03-06T17:13:43.829Z,93.10
2023-03-06T17:16:16.068Z,94.20
2023-03-06T17:18:43.507Z,94.80
2023-03-06T17:21:10.806Z,94.70
2023-03-06T17:23:37.518Z,94.60
2023-03-06T17:26:05.148Z,94.30
2023-03-06T17:28:31.828Z,93.70
2023-03-06T17:30:58.587Z,94.10
2023-03-06T17:33:25.300Z,94.40
2023-03-06T17:35:57.182Z,95.00
2023-03-06T17:38:23.835Z,94.70
2023-03-06T17:40:50.545Z,94.20
2023-03-06T17:43:17.223Z,94.00
2023-03-06T17:45:43.861Z,94.00
2023-03-06T17:48:10.539Z,94.50
2023-03-06T17:50:37.254Z,94.00
2023-03-06T17:53:03.898Z,94.30
2023-03-06T17:55:30.723Z,95.30
2023-03-06T17:57:57.406Z,94.60
2023-03-06T18:00:24.376Z,94.30
2023-03-06T18:02:51.082Z,94.60
2023-03-06T18:05:20.476Z,95.80
2023-03-06T18:07:47.394Z,94.80
2023-03-06T18:10:14.120Z,92.80
2023-03-06T18:12:40.791Z,92.40
2023-03-06T18:15:07.724Z,92.80
2023-03-06T18:17:34.448Z,92.90
2023-03-06T18:20:01.138Z,94.90
2023-03-06T18:22:32.949Z,95.20
2023-03-06T18:24:59.681Z,94.70
2023-03-06T18:27:26.367Z,94.80
2023-03-06T18:29:55.656Z,94.30
2023-03-06T18:32:22.579Z,95.40
2023-03-06T18:34:50.716Z,95.20
2023-03-06T18:37:17.894Z,95.10
2023-03-06T18:39:44.726Z,94.30
2023-03-06T18:42:11.466Z,94.60
2023-03-06T18:44:38.639Z,95.40
2023-03-06T18:47:05.498Z,95.40
2023-03-06T18:49:32.156Z,95.10
2023-03-06T18:51:58.858Z,94.80
2023-03-06T18:54:28.491Z,94.50
2023-03-06T18:56:55.196Z,94.70
2023-03-06T18:59:21.827Z,94.70
2023-03-06T19:01:48.528Z,94.90
2023-03-06T19:04:15.252Z,95.20
2023-03-06T19:06:42.711Z,95.50
2023-03-06T19:09:11.343Z,95.60
2023-03-06T19:11:38.065Z,95.70
2023-03-06T19:14:04.787Z,96.30
2023-03-06T19:16:31.661Z,96.60
2023-03-06T19:18:59.151Z,96.80
2023-03-06T19:21:26.762Z,97.00
2023-03-06T19:23:53.596Z,97.20
2023-03-06T19:26:20.397Z,97.30
2023-03-06T19:28:47.708Z,97.60
2023-03-06T19:31:19.556Z,97.70
2023-03-06T19:33:47.348Z,98.10
2023-03-06T19:36:14.706Z,98.20
2023-03-06T19:38:41.605Z,98.30
2023-03-06T19:41:13.727Z,98.20
2023-03-06T19:43:41.349Z,98.40
2023-03-06T19:46:11.937Z,98.30
2023-03-06T19:48:38.715Z,98.30
2023-03-06T19:51:05.838Z,98.80
2023-03-06T19:53:33.825Z,98.20
2023-03-06T19:56:07.980Z,98.10
2023-03-06T19:58:34.747Z,98.30
2023-03-06T20:01:05.486Z,98.50
2023-03-06T20:03:32.187Z,98.50
2023-03-06T20:05:58.918Z,98.80
2023-03-06T20:08:25.538Z,98.80
2023-03-06T20:10:52.217Z,98.70
2023-03-06T20:13:18.931Z,98.60
2023-03-06T20:15:46.622Z,98.30
2023-03-06T20:18:13.785Z,98.40
2023-03-06T20:20:40.614Z,98.50
2023-03-06T20:23:07.260Z,98.70
2023-03-06T20:25:37.342Z,98.80
2023-03-06T20:28:04.520Z,98.80
2023-03-06T20:30:37.761Z,98.50
2023-03-06T20:33:05.424Z,98.30
2023-03-06T20:35:32.187Z,98.60
2023-03-06T20:37:59.792Z,99.10
2023-03-06T20:40:26.817Z,99.30
2023-03-06T20:42:53.878Z,99.00
2023-03-06T20:45:20.550Z,98.90
2023-03-06T20:47:47.483Z,98.70
2023-03-06T20:50:15.252Z,98.60
2023-03-06T20:52:41.955Z,98.60
2023-03-06T20:55:08.916Z,98.60
2023-03-06T20:57:35.622Z,98.70
2023-03-06T21:00:02.396Z,98.80
2023-03-06T21:02:29.113Z,98.70
2023-03-06T21:04:55.981Z,98.60
2023-03-06T21:07:22.686Z,98.70
2023-03-06T21:09:49.812Z,99.00
2023-03-06T21:12:16.466Z,99.90
2023-03-06T21:14:43.119Z,99.90
2023-03-06T21:17:09.796Z,99.90
2023-03-06T21:19:36.951Z,99.90
2023-03-06T21:22:03.652Z,99.90
2023-03-06T21:24:30.341Z,99.90
2023-03-06T21:26:57.049Z,99.90
2023-03-06T21:29:23.702Z,99.90
2023-03-06T21:31:50.505Z,99.90
2023-03-06T21:34:17.174Z,99.90
2023-03-06T21:36:43.844Z,99.90
2023-03-06T21:39:10.635Z,99.90
2023-03-06T21:41:38.221Z,99.90
2023-03-06T21:44:05.428Z,99.90
2023-03-06T21:46:32.756Z,99.90
2023-03-06T21:48:59.420Z,99.90
2023-03-06T21:51:26.686Z,99.90
2023-03-06T21:53:54.074Z,99.90
2023-03-06T21:56:22.042Z,99.90
2023-03-06T21:58:48.737Z,99.90
2023-03-06T22:01:20.330Z,99.90
2023-03-06T22:03:47.284Z,99.90
2023-03-06T22:06:18.567Z,99.90
2023-03-06T22:08:45.615Z,99.80
2023-03-06T22:11:14.352Z,99.50
2023-03-06T22:13:41.327Z,99.40
2023-03-06T22:16:08.234Z,99.60
2023-03-06T22:18:35.427Z,99.50
2023-03-06T22:21:12.452Z,99.50
2023-03-06T22:23:40.307Z,99.40
2023-03-06T22:26:08.334Z,99.30
2023-03-06T22:28:35.099Z,99.80
2023-03-06T22:31:09.537Z,99.90
2023-03-06T22:33:36.666Z,99.90
2023-03-06T22:36:06.354Z,99.90
2023-03-06T22:38:37.430Z,99.90
2023-03-06T22:41:04.584Z,99.90
2023-03-06T22:43:31.619Z,99.90
2023-03-06T22:46:02.335Z,99.90
2023-03-06T22:48:29.195Z,99.90
2023-03-06T22:50:55.829Z,99.90
2023-03-06T22:53:22.492Z,99.90
2023-03-06T22:55:49.130Z,99.90
2023-03-06T22:58:15.788Z,99.90
2023-03-06T23:00:42.455Z,99.90
2023-03-06T23:03:09.098Z,99.90
2023-03-06T23:05:40.279Z,99.90
2023-03-06T23:08:06.945Z,99.90
2023-03-06T23:10:37.882Z,99.90
2023-03-06T23:13:04.699Z,99.90
2023-03-06T23:15:31.915Z,99.90
2023-03-06T23:17:58.592Z,99.90
2023-03-06T23:20:25.311Z,99.90
2023-03-06T23:22:52.049Z,99.90
2023-03-06T23:25:18.903Z,99.90
2023-03-06T23:27:45.526Z,99.90
2023-03-06T23:30:12.590Z,99.90
2023-03-06T23:32:39.303Z,99.90
2023-03-06T23:35:06.598Z,99.90
2023-03-06T23:37:33.300Z,99.90
2023-03-06T23:39:59.943Z,99.90
2023-03-06T23:42:26.802Z,99.90
2023-03-06T23:44:53.463Z,99.90
2023-03-06T23:47:20.133Z,99.90
2023-03-06T23:49:46.834Z,99.90
2023-03-06T23:52:13.483Z,99.90
2023-03-06T23:54:40.175Z,99.90
2023-03-06T23:57:06.896Z,99.90
2023-03-06T23:59:33.625Z,99.90
